Time;durP1;ratioP1;P1;durP2;ratioP2;P2;SDS_P1;SDS_P2;PMS_P1;PMS_P2;Temp;Humidity;BMP_temperature;BMP_pressure;BME280_temperature;BME280_humidity;BME280_pressure;Samples;Min_cycle;Max_cycle;Signal;HPM_P1;HPM_P2
2023/06/02 00:02:16;;;;;;;13.25;3.63;;;;;;;10.72;100.00;102189.66;5011627;28;20030;-58
2023/06/02 00:04:42;;;;;;;11.60;3.58;;;;;;;11.16;100.00;102254.97;5011326;28;20464;-53
2023/06/02 00:07:07;;;;;;;13.30;3.58;;;;;;;11.13;100.00;102250.63;5011114;28;20049;-54
2023/06/02 00:09:37;;;;;;;11.20;3.92;;;;;;;10.78;100.00;102188.69;5012898;28;20088;-52
2023/06/02 00:12:02;;;;;;;11.10;3.42;;;;;;;10.77;100.00;102197.50;5012414;28;20038;-50
2023/06/02 00:14:28;;;;;;;12.82;3.15;;;;;;;10.68;100.00;102196.72;5012913;28;20045;-52
2023/06/02 00:16:55;;;;;;;11.73;3.65;;;;;;;11.02;100.00;102257.78;5012846;28;20038;-52
2023/06/02 00:19:21;;;;;;;10.02;3.35;;;;;;;10.93;100.00;102249.13;5012641;28;20124;-54
2023/06/02 00:21:47;;;;;;;9.73;2.97;;;;;;;10.85;100.00;102245.69;5011563;28;20117;-54
2023/06/02 00:24:13;;;;;;;9.35;3.30;;;;;;;10.86;100.00;102260.63;5012574;28;20033;-53
2023/06/02 00:26:38;;;;;;;10.73;3.80;;;;;;;10.52;100.00;102197.78;4995005;28;20034;-56
2023/06/02 00:29:04;;;;;;;11.50;3.40;;;;;;;10.42;100.00;102195.28;5012650;28;20040;-56
2023/06/02 00:31:29;;;;;;;8.80;3.65;;;;;;;10.77;100.00;102272.09;5012550;28;20543;-52
2023/06/02 00:33:54;;;;;;;9.20;3.30;;;;;;;10.58;100.00;102249.50;4995014;28;20129;-54
2023/06/02 00:36:20;;;;;;;13.68;3.38;;;;;;;10.59;100.00;102252.13;4994769;28;20464;-55
2023/06/02 00:38:45;;;;;;;7.60;2.63;;;;;;;10.56;100.00;102239.00;5011340;28;20052;-58
2023/06/02 00:41:10;;;;;;;12.07;3.33;;;;;;;10.20;100.00;102194.59;5012438;28;20448;-54
2023/06/02 00:43:36;;;;;;;11.95;4.03;;;;;;;10.63;100.00;102271.38;5012571;28;20389;-51
2023/06/02 00:46:01;;;;;;;13.23;4.05;;;;;;;10.19;100.00;102190.22;5012121;28;20030;-56
2023/06/02 00:48:26;;;;;;;11.93;4.40;;;;;;;10.64;100.00;102258.22;5012463;28;20397;-55
2023/06/02 00:50:52;;;;;;;11.30;3.15;;;;;;;10.12;100.00;102185.88;5011210;28;20108;-55
2023/06/02 00:53:17;;;;;;;16.60;3.97;;;;;;;10.58;100.00;102263.53;5011199;28;20096;-51
2023/06/02 00:55:43;;;;;;;10.00;3.40;;;;;;;10.57;100.00;102253.00;5015076;28;20438;-53
2023/06/02 00:58:13;;;;;;;11.23;3.33;;;;;;;10.55;100.00;102260.94;5016350;28;20060;-51
2023/06/02 01:00:40;;;;;;;10.85;3.70;;;;;;;10.55;100.00;102257.41;5016279;28;20030;-53
2023/06/02 01:03:07;;;;;;;13.68;3.88;;;;;;;10.61;100.00;102255.63;5014981;28;20030;-54
2023/06/02 01:05:34;;;;;;;16.17;3.83;;;;;;;10.51;100.00;102245.16;5016206;28;20045;-55
2023/06/02 01:08:01;;;;;;;13.07;3.83;;;;;;;10.26;100.00;102194.53;4981019;28;20073;-51
2023/06/02 01:10:27;;;;;;;11.68;4.55;;;;;;;10.65;100.00;102261.72;4978644;28;20133;-52
2023/06/02 01:12:53;;;;;;;12.25;3.65;;;;;;;10.62;100.00;102270.50;4995348;28;20118;-54
2023/06/02 01:15:18;;;;;;;14.80;3.25;;;;;;;10.54;100.00;102258.31;4978996;28;20125;-50
2023/06/02 01:17:45;;;;;;;10.52;3.42;;;;;;;10.58;100.00;102263.53;4996358;28;20462;-56
2023/06/02 01:20:12;;;;;;;14.48;3.70;;;;;;;10.60;100.00;102268.78;4996836;28;20038;-51
2023/06/02 01:22:45;;;;;;;10.75;3.45;;;;;;;10.47;100.00;102268.03;4996370;28;20109;-56
2023/06/02 01:25:22;;;;;;;6.78;3.22;;;;;;;10.41;100.00;102254.94;4979113;28;20040;-52
2023/06/02 01:27:47;;;;;;;10.75;3.35;;;;;;;10.48;100.00;102269.78;4995140;28;20038;-54
2023/06/02 01:30:13;;;;;;;10.88;3.50;;;;;;;10.06;100.00;102205.22;4962841;28;20046;-54
2023/06/02 01:32:53;;;;;;;11.52;3.38;;;;;;;10.08;100.00;102187.66;4995278;28;20492;-51
2023/06/02 01:35:21;;;;;;;8.77;3.20;;;;;;;10.45;100.00;102267.16;4994543;28;20114;-52
2023/06/02 01:37:54;;;;;;;11.02;3.03;;;;;;;9.98;100.00;102170.19;4978722;28;20038;-53
2023/06/02 01:40:21;;;;;;;10.00;3.53;;;;;;;10.48;100.00;102261.00;4994729;28;20030;-54
2023/06/02 01:42:46;;;;;;;7.50;3.20;;;;;;;10.01;100.00;102180.69;4994643;28;20046;-53
2023/06/02 01:45:12;;;;;;;8.30;2.67;;;;;;;10.26;100.00;102234.00;4980444;28;20034;-53
2023/06/02 01:47:37;;;;;;;9.73;3.28;;;;;;;10.35;100.00;102260.25;4994965;28;20073;-55
2023/06/02 01:50:03;;;;;;;10.27;3.28;;;;;;;10.31;100.00;102257.63;4994628;28;20041;-52
2023/06/02 01:52:28;;;;;;;9.63;3.50;;;;;;;9.94;100.00;102186.03;4995728;28;20038;-51
2023/06/02 01:54:54;;;;;;;7.40;2.90;;;;;;;10.40;100.00;102257.56;4995538;28;20049;-55
2023/06/02 01:57:19;;;;;;;10.02;3.25;;;;;;;10.43;100.00;102255.78;4995588;28;20042;-51
2023/06/02 01:59:45;;;;;;;8.85;3.10;;;;;;;10.24;100.00;102235.78;4995326;28;20129;-53
2023/06/02 02:02:10;;;;;;;11.38;4.13;;;;;;;10.06;100.00;102194.69;4992793;28;20026;-56
2023/06/02 02:04:35;;;;;;;10.65;3.38;;;;;;;10.38;100.00;102257.59;4995275;28;20085;-54
2023/06/02 02:07:01;;;;;;;7.28;2.67;;;;;;;10.26;100.00;102239.28;4995150;28;20062;-55
2023/06/02 02:09:27;;;;;;;7.80;2.72;;;;;;;10.34;100.00;102253.22;4978062;28;20144;-55
2023/06/02 02:11:53;;;;;;;10.18;3.35;;;;;;;9.83;100.00;102172.09;4995375;28;20034;-52
2023/06/02 02:14:19;;;;;;;11.63;3.10;;;;;;;10.32;100.00;102262.03;4977989;28;20027;-51
2023/06/02 02:16:49;;;;;;;7.80;2.65;;;;;;;9.93;100.00;102205.31;4995039;28;20034;-54
2023/06/02 02:19:16;;;;;;;4.82;2.45;;;;;;;9.87;100.00;102185.19;4978463;28;20096;-52
2023/06/02 02:21:41;;;;;;;7.97;2.95;;;;;;;10.31;100.00;102262.91;4994092;28;20041;-56
2023/06/02 02:24:07;;;;;;;7.85;2.75;;;;;;;9.95;100.00;102198.31;4995044;28;20030;-53
2023/06/02 02:26:32;;;;;;;11.50;3.05;;;;;;;10.30;100.00;102255.91;4994986;28;20026;-54
2023/06/02 02:28:58;;;;;;;11.85;3.50;;;;;;;10.33;100.00;102263.78;4977658;28;20536;-56
2023/06/02 02:31:23;;;;;;;7.72;3.55;;;;;;;9.89;100.00;102170.31;4994924;28;20042;-50
2023/06/02 02:33:49;;;;;;;9.00;2.92;;;;;;;9.91;100.00;102173.78;4977402;28;20035;-53
2023/06/02 02:36:16;;;;;;;10.88;3.65;;;;;;;10.26;100.00;102228.75;4994994;28;20117;-50
2023/06/02 02:38:41;;;;;;;8.00;3.13;;;;;;;10.36;100.00;102245.34;4993399;28;20138;-51
2023/06/02 02:41:07;;;;;;;8.13;3.15;;;;;;;10.27;100.00;102241.03;4994713;28;20117;-51
2023/06/02 02:43:32;;;;;;;11.75;2.97;;;;;;;10.38;100.00;102254.97;4994472;28;20038;-55
2023/06/02 02:45:58;;;;;;;9.13;2.97;;;;;;;10.00;100.00;102175.47;4994945;28;20027;-52
2023/06/02 02:48:23;;;;;;;12.70;3.25;;;;;;;10.32;100.00;102241.84;4994733;28;20030;-58
2023/06/02 02:50:48;;;;;;;12.07;3.55;;;;;;;9.91;100.00;102170.28;4994639;28;20034;-55
2023/06/02 02:53:15;;;;;;;14.20;2.97;;;;;;;9.98;100.00;102179.88;4993501;28;20077;-50
2023/06/02 02:55:41;;;;;;;10.48;3.00;;;;;;;10.31;100.00;102240.09;4977537;28;20108;-54
2023/06/02 02:58:08;;;;;;;8.10;3.10;;;;;;;10.27;100.00;102234.88;4994422;28;20478;-54
2023/06/02 03:00:33;;;;;;;9.48;3.00;;;;;;;10.27;100.00;102240.16;4992693;28;20173;-55
2023/06/02 03:03:01;;;;;;;10.57;3.53;;;;;;;10.29;100.00;102238.38;4994575;28;20066;-55
2023/06/02 03:05:26;;;;;;;9.38;2.53;;;;;;;10.19;100.00;102236.72;4994411;28;20034;-51
2023/06/02 03:07:52;;;;;;;8.77;3.58;;;;;;;10.30;100.00;102235.75;4996047;28;20054;-52
2023/06/02 03:10:17;;;;;;;11.05;2.85;;;;;;;10.27;100.00;102224.38;4977020;28;20045;-51
2023/06/02 03:12:43;;;;;;;10.77;2.92;;;;;;;10.31;100.00;102239.22;4993039;28;20038;-57
2023/06/02 03:15:09;;;;;;;12.20;3.60;;;;;;;10.33;100.00;102242.72;4994076;28;20558;-52
2023/06/02 03:17:37;;;;;;;12.35;3.17;;;;;;;9.85;100.00;102170.31;4993693;28;20034;-54
2023/06/02 03:20:05;;;;;;;10.43;2.88;;;;;;;10.32;100.00;102249.75;4993008;28;20034;-56
2023/06/02 03:22:31;;;;;;;8.27;3.67;;;;;;;9.88;100.00;102170.28;4994005;28;20054;-57
2023/06/02 03:24:56;;;;;;;8.48;3.08;;;;;;;9.80;100.00;102153.72;4994149;28;20026;-57
2023/06/02 03:27:22;;;;;;;11.55;3.25;;;;;;;9.90;100.00;102179.91;4992854;28;20045;-52
2023/06/02 03:29:47;;;;;;;10.20;2.65;;;;;;;9.96;100.00;102178.97;4992882;28;20117;-59
2023/06/02 03:32:12;;;;;;;8.45;2.75;;;;;;;10.29;100.00;102248.91;4976701;28;20370;-55
2023/06/02 03:34:39;;;;;;;13.75;3.35;;;;;;;9.77;100.00;102157.25;4993972;28;20527;-52
2023/06/02 03:37:08;;;;;;;12.18;3.00;;;;;;;9.90;100.00;102169.38;4976007;28;20093;-52
2023/06/02 03:39:33;;;;;;;10.63;3.22;;;;;;;10.22;100.00;102210.34;4993709;28;20129;-54
2023/06/02 03:41:59;;;;;;;9.43;2.75;;;;;;;9.70;100.00;102133.63;4976125;28;20134;-52
2023/06/02 03:44:24;;;;;;;12.13;3.45;;;;;;;10.28;100.00;102244.50;4992732;28;20077;-49
2023/06/02 03:46:49;;;;;;;14.77;3.58;;;;;;;9.74;100.00;102145.88;4993280;28;20041;-49
2023/06/02 03:49:15;;;;;;;11.65;2.63;;;;;;;10.27;100.00;102232.25;4993600;28;20069;-54
2023/06/02 03:51:43;;;;;;;8.48;2.67;;;;;;;10.01;100.00;102187.72;4993365;28;20054;-53
2023/06/02 03:54:08;;;;;;;10.93;2.72;;;;;;;10.32;100.00;102244.47;4976366;28;20034;-50
2023/06/02 03:56:33;;;;;;;7.65;2.50;;;;;;;9.91;100.00;102165.88;4992987;28;20061;-56
2023/06/02 03:58:59;;;;;;;12.32;2.90;;;;;;;10.34;100.00;102242.69;4993163;28;20398;-53
2023/06/02 04:01:24;;;;;;;7.13;2.42;;;;;;;10.25;100.00;102245.41;4992822;28;20034;-50
2023/06/02 04:03:50;;;;;;;8.68;3.47;;;;;;;9.79;100.00;102167.72;4993217;28;20121;-56
2023/06/02 04:06:15;;;;;;;8.73;2.65;;;;;;;9.71;100.00;102148.53;4991927;28;20030;-54
2023/06/02 04:08:41;;;;;;;10.77;2.50;;;;;;;10.27;100.00;102248.94;4993115;28;20030;-50
2023/06/02 04:11:06;;;;;;;12.38;3.22;;;;;;;10.30;100.00;102248.03;4975745;28;20121;-55
2023/06/02 04:13:32;;;;;;;13.30;3.67;;;;;;;9.87;100.00;102177.31;4991875;28;20061;-53
2023/06/02 04:15:58;;;;;;;8.30;2.55;;;;;;;9.81;100.00;102173.84;4991933;28;20077;-52
2023/06/02 04:18:23;;;;;;;9.90;2.83;;;;;;;10.23;100.00;102244.56;4993052;28;20045;-57
2023/06/02 04:20:49;;;;;;;10.60;2.50;;;;;;;9.79;100.00;102165.09;4993146;28;20034;-54
2023/06/02 04:23:14;;;;;;;11.30;2.90;;;;;;;10.27;100.00;102240.16;4992961;28;20583;-56
2023/06/02 04:25:40;;;;;;;10.13;3.28;;;;;;;10.29;100.00;102255.03;4992982;28;20117;-52
2023/06/02 04:28:05;;;;;;;8.93;2.70;;;;;;;10.31;100.00;102249.75;4992118;28;20041;-52
2023/06/02 04:30:31;;;;;;;8.50;3.33;;;;;;;10.28;100.00;102252.41;4992946;28;20041;-56
2023/06/02 04:32:56;;;;;;;9.40;2.70;;;;;;;10.30;100.00;102256.78;4992050;28;20030;-50
2023/06/02 04:35:21;;;;;;;9.18;2.65;;;;;;;10.30;100.00;102263.81;4992735;28;20096;-53
2023/06/02 04:37:46;;;;;;;8.38;3.10;;;;;;;10.31;100.00;102261.16;4992733;28;20043;-53
2023/06/02 04:40:15;;;;;;;13.57;2.97;;;;;;;10.29;100.00;102249.78;4991620;28;20038;-52
2023/06/02 04:42:40;;;;;;;9.48;2.42;;;;;;;10.34;100.00;102261.13;4993061;28;20038;-55
2023/06/02 04:45:16;;;;;;;9.95;3.15;;;;;;;10.34;100.00;102258.50;4992955;28;20038;-55
2023/06/02 04:47:42;;;;;;;9.55;2.97;;;;;;;10.29;100.00;102239.25;4992914;28;20363;-54
2023/06/02 04:50:11;;;;;;;12.27;3.05;;;;;;;10.20;100.00;102238.44;4991252;28;20039;-52
2023/06/02 04:52:41;;;;;;;11.13;2.85;;;;;;;10.38;100.00;102254.97;4976037;28;20034;-51
2023/06/02 04:55:10;;;;;;;8.27;2.65;;;;;;;9.99;100.00;102185.09;4992560;28;20434;-53
2023/06/02 04:57:36;;;;;;;7.68;3.15;;;;;;;9.93;100.00;102172.00;4991465;28;20038;-50
2023/06/02 05:00:06;;;;;;;10.20;3.13;;;;;;;10.51;100.00;102255.69;4975309;28;20113;-51
2023/06/02 05:02:31;;;;;;;12.80;3.35;;;;;;;10.44;100.00;102246.13;4991359;28;20470;-54
2023/06/02 05:04:57;;;;;;;12.30;2.88;;;;;;;10.02;100.00;102164.03;4975603;28;20042;-55
2023/06/02 05:07:22;;;;;;;9.88;3.17;;;;;;;10.48;100.00;102232.03;4974813;28;20054;-50
2023/06/02 05:09:48;;;;;;;11.18;3.08;;;;;;;10.46;100.00;102250.50;4992554;28;20034;-57
2023/06/02 05:12:16;;;;;;;13.00;3.25;;;;;;;10.54;100.00;102264.44;4974929;28;20035;-52
2023/06/02 05:14:41;;;;;;;14.25;3.45;;;;;;;10.26;100.00;102207.69;4975082;28;20122;-55
2023/06/02 05:17:07;;;;;;;10.30;3.03;;;;;;;10.71;100.00;102261.66;4991268;28;20085;-51
2023/06/02 05:19:33;;;;;;;12.93;3.63;;;;;;;10.51;100.00;102235.50;4992501;28;20545;-50
2023/06/02 05:21:58;;;;;;;10.25;2.90;;;;;;;10.64;100.00;102262.59;4991186;28;20485;-54
2023/06/02 05:24:24;;;;;;;11.85;3.67;;;;;;;10.65;100.00;102254.66;4992512;28;20041;-53
2023/06/02 05:26:49;;;;;;;10.13;2.72;;;;;;;10.74;100.00;102267.75;4974773;28;20035;-57
2023/06/02 05:29:15;;;;;;;10.50;2.97;;;;;;;10.67;100.00;102260.81;4992439;28;20062;-49
2023/06/02 05:31:40;;;;;;;10.88;3.28;;;;;;;10.68;100.00;102264.31;4974867;28;20073;-56
2023/06/02 05:34:05;;;;;;;10.95;3.70;;;;;;;10.76;100.00;102286.19;4992349;28;20102;-55
2023/06/02 05:36:30;;;;;;;12.77;3.55;;;;;;;10.72;100.00;102274.81;4991014;28;20448;-51
2023/06/02 05:38:56;;;;;;;14.38;3.33;;;;;;;10.58;100.00;102260.03;4991355;28;20038;-56
2023/06/02 05:41:21;;;;;;;11.13;3.22;;;;;;;10.60;100.00;102277.56;4978452;28;20034;-54
2023/06/02 05:43:47;;;;;;;10.32;3.17;;;;;;;10.55;100.00;102252.16;4995923;28;20370;-51
2023/06/02 05:46:12;;;;;;;13.30;2.25;;;;;;;10.21;100.00;102200.72;4995831;28;20247;-49
2023/06/02 05:48:38;;;;;;;7.18;2.63;;;;;;;10.64;100.00;102258.22;4995946;28;20342;-54
2023/06/02 05:51:03;;;;;;;10.48;2.75;;;;;;;10.81;100.00;102283.50;4995661;28;20508;-51
2023/06/02 05:53:29;;;;;;;10.98;3.60;;;;;;;11.01;100.00;102278.88;4995739;28;20030;-50
2023/06/02 05:55:54;;;;;;;14.85;3.67;;;;;;;10.95;100.00;102278.94;4994699;28;20042;-52
2023/06/02 05:58:20;;;;;;;11.77;3.40;;;;;;;10.97;100.00;102279.81;4995731;28;20038;-52
2023/06/02 06:00:45;;;;;;;14.68;3.47;;;;;;;10.60;100.00;102198.56;4978177;28;20386;-56
2023/06/02 06:03:12;;;;;;;11.98;3.08;;;;;;;11.10;100.00;102281.41;4962140;28;20034;-58
2023/06/02 06:05:37;;;;;;;11.13;3.00;;;;;;;11.04;100.00;102276.22;4995433;28;20050;-58
2023/06/02 06:08:03;;;;;;;10.40;2.53;;;;;;;10.89;100.00;102239.50;4993487;28;20058;-55
2023/06/02 06:10:28;;;;;;;13.68;3.25;;;;;;;11.11;100.00;102238.38;5014931;28;20030;-53
2023/06/02 06:12:53;;;;;;;10.70;3.50;;;;;;;11.25;100.00;102268.94;5013986;28;20022;-54
2023/06/02 06:15:19;;;;;;;10.20;3.10;;;;;;;11.29;100.00;102272.41;5014377;28;20038;-50
2023/06/02 06:17:52;;;;;;;13.82;3.28;;;;;;;11.40;100.00;102261.72;5013496;28;20036;-50
2023/06/02 06:20:18;;;;;;;18.77;4.63;;;;;;;11.05;100.00;102209.44;5014503;28;20092;-53
2023/06/02 06:22:43;;;;;;;16.80;3.00;;;;;;;10.93;100.00;102186.75;5014959;28;20121;-55
2023/06/02 06:25:10;;;;;;;12.13;3.00;;;;;;;11.61;100.00;102261.44;5014892;28;20057;-49
2023/06/02 06:27:35;;;;;;;11.40;3.38;;;;;;;11.22;100.00;102195.16;5014776;28;20037;-50
2023/06/02 06:30:01;;;;;;;12.57;2.92;;;;;;;11.21;100.00;102229.44;5013368;28;20033;-54
2023/06/02 06:32:26;;;;;;;8.38;3.20;;;;;;;11.04;100.00;102213.84;5013106;28;20118;-52
2023/06/02 06:34:51;;;;;;;11.95;2.92;;;;;;;11.62;100.00;102287.75;5014593;28;20286;-54
2023/06/02 06:37:17;;;;;;;11.05;3.03;;;;;;;11.44;100.00;102281.88;5014272;28;20448;-53
2023/06/02 06:39:42;;;;;;;17.13;4.07;;;;;;;11.11;100.00;102228.69;5014140;28;20041;-53
2023/06/02 06:42:07;;;;;;;15.35;3.35;;;;;;;11.29;100.00;102222.31;4997282;28;20037;-54
2023/06/02 06:44:33;;;;;;;18.00;4.03;;;;;;;11.58;100.00;102282.56;5014356;28;20077;-55
2023/06/02 06:46:58;;;;;;;13.82;3.25;;;;;;;11.45;100.00;102259.88;5014127;28;20124;-52
2023/06/02 06:49:24;;;;;;;10.90;3.40;;;;;;;11.37;100.00;102249.44;5014221;28;20034;-55
2023/06/02 06:51:49;;;;;;;12.00;2.90;;;;;;;11.66;100.00;102259.59;5012357;28;20044;-52
2023/06/02 06:54:15;;;;;;;13.48;3.47;;;;;;;11.83;100.00;102279.59;5014442;28;20029;-50
2023/06/02 06:56:42;;;;;;;11.18;2.75;;;;;;;11.83;100.00;102273.44;5014065;28;20065;-51
2023/06/02 06:59:08;;;;;;;14.77;3.38;;;;;;;11.96;100.00;102287.31;5014150;28;20038;-52
2023/06/02 07:01:33;;;;;;;7.68;2.88;;;;;;;12.07;100.00;102291.53;5013921;28;20088;-55
2023/06/02 07:03:59;;;;;;;8.13;2.90;;;;;;;12.00;100.00;102286.34;5012544;28;20037;-54
2023/06/02 07:06:24;;;;;;;11.65;3.05;;;;;;;12.05;100.00;102292.47;4993967;28;20048;-57
2023/06/02 07:08:49;;;;;;;11.63;3.15;;;;;;;11.91;100.00;102278.63;4993128;28;20039;-54
2023/06/02 07:11:15;;;;;;;11.23;3.75;;;;;;;12.15;100.00;102286.13;4976968;28;20049;-56
2023/06/02 07:13:41;;;;;;;8.15;3.17;;;;;;;12.12;100.00;102280.91;4976909;28;20125;-50
2023/06/02 07:16:06;;;;;;;14.93;3.30;;;;;;;12.13;100.00;102285.28;4993963;28;20517;-54
2023/06/02 07:18:32;;;;;;;9.40;3.00;;;;;;;12.03;100.00;102270.47;4992351;28;20034;-57
2023/06/02 07:20:57;;;;;;;10.93;3.35;;;;;;;12.04;100.00;102272.22;4993670;28;20034;-53
2023/06/02 07:23:22;;;;;;;12.32;3.10;;;;;;;12.24;100.00;102291.25;4993415;28;20057;-56
2023/06/02 07:25:48;;;;;;;13.55;3.13;;;;;;;11.93;100.00;102229.31;4992164;28;20096;-52
2023/06/02 07:28:13;;;;;;;10.07;3.45;;;;;;;12.17;100.00;102285.19;4976806;28;20165;-53
2023/06/02 07:30:45;;;;;;;17.05;3.60;;;;;;;12.24;100.00;102299.19;4976465;28;20366;-53
2023/06/02 07:33:10;;;;;;;13.32;4.30;;;;;;;12.47;100.00;102299.69;4993482;28;20030;-50
2023/06/02 07:35:35;;;;;;;14.60;3.53;;;;;;;12.46;100.00;102311.16;4993942;28;20501;-54
2023/06/02 07:38:01;;;;;;;11.05;3.38;;;;;;;12.67;100.00;102296.69;4993776;28;20389;-51
2023/06/02 07:40:26;;;;;;;14.45;3.55;;;;;;;12.69;100.00;102261.44;4993921;28;20045;-54
2023/06/02 07:42:51;;;;;;;10.50;3.08;;;;;;;12.61;100.00;102316.16;4992654;28;20121;-54
2023/06/02 07:45:17;;;;;;;11.07;3.53;;;;;;;12.00;100.00;102172.88;4993677;28;20070;-54
2023/06/02 07:47:42;;;;;;;10.35;3.13;;;;;;;12.93;100.00;102302.34;4993897;28;20031;-53
2023/06/02 07:50:08;;;;;;;13.25;3.03;;;;;;;12.01;100.00;102166.72;4993370;28;20092;-53
2023/06/02 07:52:34;;;;;;;14.13;3.53;;;;;;;12.70;100.00;102246.44;4993429;28;20449;-52
2023/06/02 07:55:00;;;;;;;9.98;3.22;;;;;;;13.16;100.00;102289.63;4993588;28;20035;-55
2023/06/02 07:57:25;;;;;;;17.55;3.60;;;;;;;12.87;100.00;102233.78;4976168;28;20042;-53
2023/06/02 07:59:52;;;;;;;9.85;2.95;;;;;;;13.23;100.00;102287.69;4992256;28;20478;-53
2023/06/02 08:02:17;;;;;;;13.18;3.25;;;;;;;13.08;100.00;102294.16;4975858;28;20039;-53
2023/06/02 08:04:42;;;;;;;12.40;3.25;;;;;;;13.38;100.00;102276.81;4993253;28;20027;-52
2023/06/02 08:07:07;;;;;;;14.95;3.22;;;;;;;13.63;100.00;102315.06;4992846;28;20046;-54
2023/06/02 08:09:33;;;;;;;9.68;3.20;;;;;;;13.67;100.00;102308.81;4993092;28;20125;-55
2023/06/02 08:11:58;;;;;;;8.40;2.85;;;;;;;13.58;100.00;102295.78;4975793;28;20101;-50
2023/06/02 08:14:23;;;;;;;12.07;2.88;;;;;;;13.49;100.00;102241.28;4990966;28;20062;-53
2023/06/02 08:16:50;;;;;;;18.27;3.25;;;;;;;13.43;100.00;102274.94;4991470;28;20038;-53
2023/06/02 08:19:17;;;;;;;10.45;2.95;;;;;;;13.69;100.00;102301.69;5006206;28;20045;-54
2023/06/02 08:21:43;;;;;;;9.93;3.05;;;;;;;13.04;100.00;102184.09;4993306;28;20133;-54
2023/06/02 08:24:08;;;;;;;12.23;3.33;;;;;;;13.78;100.00;102288.25;4975570;28;20234;-54
2023/06/02 08:26:34;;;;;;;9.98;3.40;;;;;;;13.74;100.00;102297.19;4992762;28;20118;-51
2023/06/02 08:28:59;;;;;;;13.95;3.40;;;;;;;13.33;100.00;102266.34;4993052;28;20038;-53
2023/06/02 08:31:25;;;;;;;10.88;3.13;;;;;;;13.74;100.00;102286.59;4975206;28;20039;-50
2023/06/02 08:33:53;;;;;;;15.65;3.35;;;;;;;13.88;100.00;102287.16;4990560;28;20474;-53
2023/06/02 08:36:19;;;;;;;7.45;3.05;;;;;;;14.01;100.00;102279.78;4989512;28;20038;-54
2023/06/02 08:38:51;;;;;;;12.52;3.03;;;;;;;13.50;100.00;102216.59;4991082;28;20039;-55
2023/06/02 08:41:16;;;;;;;8.93;2.67;;;;;;;13.36;100.00;102204.56;4989841;28;20030;-54
2023/06/02 08:43:42;;;;;;;8.55;2.85;;;;;;;13.65;100.00;102222.44;4990327;28;20581;-51
2023/06/02 08:46:12;;;;;;;11.70;3.58;;;;;;;13.90;100.00;102281.81;4980769;28;20502;-54
2023/06/02 08:48:39;;;;;;;15.87;3.83;;;;;;;13.60;100.00;102216.38;4970853;28;20619;-54
2023/06/02 08:51:08;;;;;;;10.10;3.28;;;;;;;13.84;100.00;102274.00;4975178;28;20037;-53
2023/06/02 08:53:35;;;;;;;12.77;3.00;;;;;;;14.01;100.00;102287.72;4980787;28;20037;-55
2023/06/02 08:56:00;;;;;;;11.45;3.38;;;;;;;14.07;100.00;102280.50;4991751;28;20084;-52
2023/06/02 08:58:29;;;;;;;14.82;3.38;;;;;;;14.14;100.00;102265.34;4992059;28;20026;-52
2023/06/02 09:00:54;;;;;;;11.40;3.40;;;;;;;14.16;100.00;102282.06;4992525;28;20042;-54
2023/06/02 09:03:21;;;;;;;11.38;3.47;;;;;;;14.49;100.00;102270.66;4992343;28;20375;-56
2023/06/02 09:05:46;;;;;;;12.65;3.10;;;;;;;14.28;100.00;102281.78;4990905;28;20038;-55
2023/06/02 09:08:14;;;;;;;11.70;3.13;;;;;;;14.07;100.00;102264.63;4997512;28;20108;-53
2023/06/02 09:10:44;;;;;;;17.08;3.75;;;;;;;13.58;100.00;102250.78;4990379;28;20040;-53
2023/06/02 09:13:10;;;;;;;15.43;4.25;;;;;;;13.45;100.00;102265.22;5007707;28;20034;-55
2023/06/02 09:16:00;;;;;;;10.98;3.50;;;;;;;13.69;100.00;102275.22;5027357;28;20065;-56
2023/06/02 09:18:26;;;;;;;10.75;3.42;;;;;;;13.38;100.00;102218.63;4987171;28;20141;-55
2023/06/02 09:20:52;;;;;;;12.50;4.10;;;;;;;13.87;100.00;102280.13;5001860;28;20035;-54
2023/06/02 09:23:18;;;;;;;14.43;4.00;;;;;;;14.00;100.00;102268.34;4994927;28;20477;-52
2023/06/02 09:25:45;;;;;;;12.00;3.38;;;;;;;13.56;100.00;102217.34;4995014;28;20038;-54
2023/06/02 09:28:11;;;;;;;14.30;3.80;;;;;;;13.92;100.00;102280.88;5008653;28;20113;-51
2023/06/02 09:30:36;;;;;;;10.30;3.95;;;;;;;13.89;100.00;102272.16;5013156;28;20118;-53
2023/06/02 09:33:06;;;;;;;15.45;4.57;;;;;;;13.46;100.00;102204.31;4996055;28;20034;-51
2023/06/02 09:35:32;;;;;;;14.93;4.15;;;;;;;14.02;100.00;102269.16;5000927;28;20044;-51
2023/06/02 09:37:58;;;;;;;12.82;3.60;;;;;;;13.90;100.00;102235.03;5001241;28;20117;-56
2023/06/02 09:40:27;;;;;;;8.70;3.28;;;;;;;13.66;100.00;102210.94;4994053;28;20081;-53
2023/06/02 09:42:53;;;;;;;13.35;3.85;;;;;;;14.08;100.00;102284.03;4997105;28;20397;-52
2023/06/02 09:45:18;;;;;;;15.68;3.65;;;;;;;14.15;100.00;102277.69;4978590;28;20038;-50
2023/06/02 09:47:43;;;;;;;11.45;3.60;;;;;;;13.60;100.00;102206.66;4995536;28;20081;-53
2023/06/02 09:50:10;;;;;;;11.52;3.15;;;;;;;13.97;100.00;102256.94;5010879;28;20085;-50
2023/06/02 09:52:36;;;;;;;9.48;3.83;;;;;;;13.78;100.00;102237.09;5008611;28;20073;-54
2023/06/02 09:55:01;;;;;;;14.07;4.57;;;;;;;13.82;100.00;102259.94;4994601;28;20073;-52
2023/06/02 09:57:28;;;;;;;15.70;4.00;;;;;;;13.57;100.00;102200.56;4994807;28;20069;-54
2023/06/02 09:59:53;;;;;;;19.13;4.75;;;;;;;13.95;100.00;102201.38;4995346;28;20037;-55
2023/06/02 10:02:18;;;;;;;13.40;3.92;;;;;;;14.31;100.00;102263.16;4994578;28;20086;-54
2023/06/02 10:04:45;;;;;;;17.40;4.35;;;;;;;14.24;100.00;102258.06;4994744;28;20108;-52
2023/06/02 10:07:29;;;;;;;16.30;4.35;;;;;;;14.50;100.00;102269.78;5000753;28;20045;-55
2023/06/02 10:10:13;;;;;;;13.30;4.70;;;;;;;14.57;100.00;102275.75;5014995;28;20491;-55
2023/06/02 10:12:59;;;;;;;13.02;3.90;;;;;;;14.48;100.00;102263.63;5010868;28;20053;-54
2023/06/02 10:15:40;;;;;;;13.38;3.70;;;;;;;14.49;100.00;102270.66;5008431;28;20045;-52
2023/06/02 10:18:15;;;;;;;14.40;3.75;;;;;;;14.58;100.00;102266.91;5014350;28;20504;-54
2023/06/02 10:21:00;;;;;;;16.30;4.32;;;;;;;14.53;100.00;102263.53;4997359;28;20448;-52
2023/06/02 10:23:48;;;;;;;7.93;4.15;;;;;;;14.44;100.00;102185.16;4994114;28;20065;-54
2023/06/02 10:26:36;;;;;;;14.88;4.22;;;;;;;15.26;100.00;102258.81;4996282;28;20041;-54
2023/06/02 10:29:04;;;;;;;17.45;4.32;;;;;;;15.13;100.00;102223.81;5013129;28;20085;-55
2023/06/02 10:31:32;;;;;;;10.60;3.47;;;;;;;15.20;100.00;102266.06;5013418;28;20034;-51
2023/06/02 10:34:00;;;;;;;12.68;3.50;;;;;;;15.25;100.00;102273.00;5011082;28;20037;-51
2023/06/02 10:36:26;;;;;;;14.43;4.55;;;;;;;14.72;100.00;102197.63;5011187;28;20061;-55
2023/06/02 10:38:51;;;;;;;18.52;4.25;;;;;;;15.16;100.00;102267.03;5015769;28;20517;-50
2023/06/02 10:41:21;;;;;;;14.52;4.13;;;;;;;15.16;100.00;102263.53;5014537;28;20045;-51
2023/06/02 10:44:25;;;;;;;17.15;4.18;;;;;;;15.09;100.00;102267.28;5014077;28;20037;-53
2023/06/02 10:47:18;;;;;;;14.80;4.53;;;;;;;15.29;100.00;102258.75;4993982;28;20061;-54
2023/06/02 10:49:54;;;;;;;11.13;3.95;;;;;;;15.26;100.00;102198.69;5014321;28;20038;-55
2023/06/02 10:52:21;;;;;;;12.27;3.85;;;;;;;15.41;100.00;102203.50;5011992;28;20045;-55
2023/06/02 10:55:08;;;;;;;13.35;3.70;;;;;;;15.52;100.00;102266.91;5013495;28;20041;-52
2023/06/02 10:58:01;;;;;;;13.95;4.63;;;;;;;15.58;100.00;102230.44;5014107;28;20029;-54
2023/06/02 11:00:29;;;;;;;15.75;3.67;;;;;;;15.90;100.00;102282.53;5012885;28;20033;-54
2023/06/02 11:02:55;;;;;;;15.32;3.95;;;;;;;15.80;100.00;102211.16;4998148;28;20030;-53
2023/06/02 11:05:25;;;;;;;16.80;4.25;;;;;;;16.46;100.00;102270.03;5013915;28;20089;-55
2023/06/02 11:08:16;;;;;;;11.77;3.50;;;;;;;16.85;100.00;102265.16;5000978;28;20508;-51
2023/06/02 11:10:53;;;;;;;10.10;3.42;;;;;;;16.69;100.00;102210.78;4992530;28;20047;-52
2023/06/02 11:13:20;;;;;;;17.80;3.78;;;;;;;16.79;100.00;102276.88;4993522;28;20022;-54